createdAt,value
2022-08-28T00:00:21.493Z,95416.4
2022-08-28T00:01:23.713Z,95417.3
2022-08-28T00:02:26.246Z,95413.8
2022-08-28T00:04:34.860Z,95416.4
2022-08-28T00:05:37.471Z,95414.7
2022-08-28T00:06:39.945Z,95407.9
2022-08-28T00:08:47.422Z,95409.5
2022-08-28T00:09:49.905Z,95405.8
2022-08-28T00:10:52.113Z,95404.8
2022-08-28T00:11:54.040Z,95404.6
2022-08-28T00:12:56.523Z,95406
2022-08-28T00:13:58.451Z,95406.5
2022-08-28T00:15:00.371Z,95402.2
2022-08-28T00:16:02.916Z,95403.5
2022-08-28T00:17:05.454Z,95403.8
2022-08-28T00:18:07.379Z,95403.1
2022-08-28T00:19:09.843Z,95404.6
2022-08-28T00:20:12.327Z,95403.9
2022-08-28T00:21:13.961Z,95404.3
2022-08-28T00:22:17.163Z,95415.8
2022-08-28T00:23:19.646Z,95416
2022-08-28T00:24:22.149Z,95410.9
2022-08-28T00:25:24.625Z,95411.8
2022-08-28T00:26:26.832Z,95410.8
2022-08-28T00:27:29.031Z,95410.3
2022-08-28T00:28:31.566Z,95409.5
2022-08-28T00:29:33.773Z,95407.8
2022-08-28T00:30:35.995Z,95408.2
2022-08-28T00:31:38.695Z,95404.7
2022-08-28T00:32:41.253Z,95403.2
2022-08-28T00:33:43.722Z,95400
2022-08-28T00:34:46.206Z,95405.3
2022-08-28T00:35:48.421Z,95403.2
2022-08-28T00:36:53.107Z,95401.8
2022-08-28T00:37:58.349Z,95404.9
2022-08-28T00:39:00.822Z,95397.9
2022-08-28T00:40:04.710Z,95407.4
2022-08-28T00:41:08.471Z,95404.3
2022-08-28T00:42:14.668Z,95411.3
2022-08-28T00:43:16.858Z,95401.8
2022-08-28T00:44:19.341Z,95401
2022-08-28T00:45:21.818Z,95406.6
2022-08-28T00:46:24.546Z,95404.8
2022-08-28T00:47:27.138Z,95404.5
2022-08-28T00:48:28.786Z,95400.7
2022-08-28T00:49:31.260Z,95402.7
2022-08-28T00:50:33.187Z,95403.6
2022-08-28T00:51:35.387Z,95405.7
2022-08-28T00:52:37.596Z,95400.8
2022-08-28T00:53:39.809Z,95402.4
2022-08-28T00:55:47.507Z,95409.8
2022-08-28T00:56:49.979Z,95407
2022-08-28T00:57:52.215Z,95408.1
2022-08-28T00:58:54.422Z,95410.5
2022-08-28T00:59:56.335Z,95408.8
2022-08-28T01:00:58.813Z,95410.6
2022-08-28T01:02:03.755Z,95411.2
2022-08-28T01:03:06.460Z,95414.5
2022-08-28T01:04:09.083Z,95407.8
2022-08-28T01:05:11.285Z,95410.2
2022-08-28T01:06:13.748Z,95409.3
2022-08-28T01:07:16.235Z,95411
2022-08-28T01:08:19.875Z,95407.3
2022-08-28T01:09:22.601Z,95399.6
2022-08-28T01:10:24.525Z,95404.2
2022-08-28T01:11:27.007Z,95402.7
2022-08-28T01:12:29.212Z,95399.3
2022-08-28T01:13:31.684Z,95403.3
2022-08-28T01:14:34.147Z,95399.5
2022-08-28T01:15:36.663Z,95394.2
2022-08-28T01:16:38.952Z,95398.1
2022-08-28T01:18:46.419Z,95402.5
2022-08-28T01:19:48.906Z,95398.3
2022-08-28T01:20:51.373Z,95396.3
2022-08-28T01:21:53.575Z,95395.2
2022-08-28T01:22:56.044Z,95397.3
2022-08-28T01:23:58.245Z,95396.2
2022-08-28T01:25:00.445Z,95395.1
2022-08-28T01:27:08.432Z,95396.1
2022-08-28T01:28:11.140Z,95393.4
2022-08-28T01:29:14.012Z,95393.5
2022-08-28T01:30:16.225Z,95393.7
2022-08-28T01:31:18.712Z,95394.9
2022-08-28T01:32:21.255Z,95394.1
2022-08-28T01:34:28.448Z,95393.6
2022-08-28T01:35:30.638Z,95392
2022-08-28T01:36:32.829Z,95386.6
2022-08-28T01:37:35.301Z,95387.6
2022-08-28T01:38:37.490Z,95389.1
2022-08-28T01:39:39.960Z,95385.2
2022-08-28T01:40:42.481Z,95385
2022-08-28T01:41:44.953Z,95385.3
2022-08-28T01:42:47.141Z,95391.8
2022-08-28T01:43:49.067Z,95389.8
2022-08-28T01:44:50.965Z,95391.3
2022-08-28T01:45:53.035Z,95391.6
2022-08-28T01:46:55.127Z,95391.9
2022-08-28T01:47:57.603Z,95387.9
2022-08-28T01:49:01.210Z,95386.7
2022-08-28T01:50:05.079Z,95390.7
2022-08-28T01:51:07.006Z,95391.5
2022-08-28T01:52:12.731Z,95389.6
2022-08-28T01:53:15.812Z,95387.6
2022-08-28T01:54:18.402Z,95389.5
2022-08-28T01:55:23.007Z,95389.4
2022-08-28T01:56:29.956Z,95389.9
2022-08-28T01:57:32.430Z,95389
2022-08-28T02:00:44.892Z,95387.9
2022-08-28T02:01:47.344Z,95390.8
2022-08-28T02:02:49.904Z,95388.3
2022-08-28T02:03:52.525Z,95387.3
2022-08-28T02:04:54.704Z,95391
2022-08-28T02:05:57.180Z,95387.7
2022-08-28T02:06:59.657Z,95389.7
2022-08-28T02:08:02.148Z,95389.7
2022-08-28T02:09:04.620Z,95387.5
2022-08-28T02:10:07.109Z,95389.6
2022-08-28T02:11:09.287Z,95388.8
2022-08-28T02:12:11.787Z,95387.9
2022-08-28T02:13:15.375Z,95390.1
2022-08-28T02:14:19.446Z,95388.9
2022-08-28T02:16:26.639Z,95385.9
2022-08-28T02:17:28.836Z,95391
2022-08-28T02:18:31.303Z,95390
2022-08-28T02:19:33.795Z,95390.2
2022-08-28T02:20:36.261Z,95389.6
2022-08-28T02:21:38.730Z,95390.4
2022-08-28T02:22:41.198Z,95390.7
2022-08-28T02:23:43.708Z,95386.6
2022-08-28T02:24:45.900Z,95385.6
2022-08-28T02:26:53.093Z,95386.3
2022-08-28T02:27:55.294Z,95384.7
2022-08-28T02:28:57.494Z,95382.4
2022-08-28T02:29:59.973Z,95380.1
2022-08-28T02:31:02.772Z,95385.4
2022-08-28T02:32:05.396Z,95380.4
2022-08-28T02:33:07.581Z,95386.2
2022-08-28T02:34:09.771Z,95386
2022-08-28T02:35:13.374Z,95385.9
2022-08-28T02:36:16.061Z,95384.2
2022-08-28T02:37:18.284Z,95388.9
2022-08-28T02:38:20.497Z,95387.6
2022-08-28T02:39:22.688Z,95388.1
2022-08-28T02:40:25.690Z,95386.5
2022-08-28T02:41:28.267Z,95382.9
2022-08-28T02:42:30.482Z,95386.1
2022-08-28T02:43:32.680Z,95381.6
2022-08-28T02:44:34.903Z,95384.5
2022-08-28T02:45:37.098Z,95383.3
2022-08-28T02:46:39.849Z,95385.8
2022-08-28T02:47:42.382Z,95381.1
2022-08-28T02:48:44.864Z,95385
2022-08-28T02:49:47.057Z,95386.4
2022-08-28T02:50:49.537Z,95386.6
2022-08-28T02:51:52.005Z,95386.5
2022-08-28T02:52:55.787Z,95389.9
2022-08-28T02:53:58.267Z,95386
2022-08-28T02:55:00.468Z,95385.8
2022-08-28T02:56:02.660Z,95385
2022-08-28T02:57:04.857Z,95390.9
2022-08-28T02:58:07.428Z,95387.9
2022-08-28T02:59:09.934Z,95387.9
2022-08-28T03:00:12.134Z,95384.2
2022-08-28T03:01:14.911Z,95384.2
2022-08-28T03:02:17.692Z,95383
2022-08-28T03:03:20.178Z,95383.8
2022-08-28T03:04:22.347Z,95385.3
2022-08-28T03:05:24.830Z,95385.4
2022-08-28T03:06:27.360Z,95386.1
2022-08-28T03:07:29.850Z,95387.3
2022-08-28T03:08:32.040Z,95384.8
2022-08-28T03:09:34.292Z,95382.7
2022-08-28T03:10:36.775Z,95385.5
2022-08-28T03:11:39.244Z,95382.4
2022-08-28T03:12:41.177Z,95384.3
2022-08-28T03:13:43.664Z,95385.3
2022-08-28T03:14:46.134Z,95391.2
2022-08-28T03:16:53.653Z,95390.3
2022-08-28T03:17:56.654Z,95392.2
2022-08-28T03:18:59.130Z,95385.3
2022-08-28T03:20:01.345Z,95385
2022-08-28T03:21:03.246Z,95384.5
2022-08-28T03:22:05.719Z,95384.7
2022-08-28T03:23:07.908Z,95383.3
2022-08-28T03:25:15.835Z,95382.6
2022-08-28T03:26:18.321Z,95381.1
2022-08-28T03:27:20.513Z,95383.2
2022-08-28T03:28:22.983Z,95384.9
2022-08-28T03:29:24.919Z,95385.5
2022-08-28T03:30:27.622Z,95384.4
2022-08-28T03:31:30.165Z,95382.2
2022-08-28T03:32:32.375Z,95387.7
2022-08-28T03:33:34.290Z,95388
2022-08-28T03:34:36.765Z,95388
2022-08-28T03:35:39.228Z,95386.3
2022-08-28T03:36:41.699Z,95392.1
2022-08-28T03:37:44.179Z,95390.8
2022-08-28T03:38:46.104Z,95392.1
2022-08-28T03:39:48.566Z,95391.6
2022-08-28T03:40:51.049Z,95396.5
2022-08-28T03:41:53.273Z,95389.9
2022-08-28T03:42:56.676Z,95394.7
2022-08-28T03:43:58.580Z,95392.1
2022-08-28T03:45:00.490Z,95390.9
2022-08-28T03:46:03.235Z,95395.7
2022-08-28T03:47:05.967Z,95392.8
2022-08-28T03:48:08.069Z,95393.7
2022-08-28T03:49:12.287Z,95397
2022-08-28T03:50:14.805Z,95393.7
2022-08-28T03:51:19.116Z,95397.1
2022-08-28T03:52:25.870Z,95399.3
2022-08-28T03:53:28.046Z,95399
2022-08-28T03:54:30.235Z,95399.8
2022-08-28T03:55:32.710Z,95394.1
2022-08-28T03:56:34.885Z,95397.7
2022-08-28T03:57:37.353Z,95400.9
2022-08-28T03:58:39.876Z,95403.2
2022-08-28T03:59:42.348Z,95402.2
2022-08-28T04:00:47.100Z,95401.1
2022-08-28T04:01:49.911Z,95402.4
2022-08-28T04:02:52.643Z,95399.5
2022-08-28T04:03:55.194Z,95408.8
2022-08-28T04:04:57.662Z,95405.9
2022-08-28T04:06:00.145Z,95403.6
2022-08-28T04:07:02.372Z,95402.7
2022-08-28T04:08:04.630Z,95400.7
2022-08-28T04:09:06.836Z,95406.7
2022-08-28T04:10:09.370Z,95404.4
2022-08-28T04:11:11.565Z,95400.3
2022-08-28T04:12:14.045Z,95405.6
2022-08-28T04:13:16.524Z,95403
2022-08-28T04:14:18.731Z,95407.7
2022-08-28T04:15:21.209Z,95404.9
2022-08-28T04:16:23.944Z,95409.5
2022-08-28T04:17:26.529Z,95406.8
2022-08-28T04:18:28.709Z,95407.3
2022-08-28T04:19:30.935Z,95409.4
2022-08-28T04:20:33.144Z,95409
2022-08-28T04:21:35.335Z,95406.4
2022-08-28T04:22:37.547Z,95404.2
2022-08-28T04:23:40.473Z,95408.1
2022-08-28T04:24:42.667Z,95411.6
2022-08-28T04:25:44.863Z,95404.9
2022-08-28T04:26:47.355Z,95415
2022-08-28T04:27:49.985Z,95413.4
2022-08-28T04:29:57.458Z,95408
2022-08-28T04:30:59.931Z,95407.4
2022-08-28T04:32:02.655Z,95408.6
2022-08-28T04:33:05.259Z,95407.5
2022-08-28T04:34:07.170Z,95410.4
2022-08-28T04:35:09.102Z,95411.8
2022-08-28T04:36:13.002Z,95417
2022-08-28T04:37:15.184Z,95415.3
2022-08-28T04:38:17.852Z,95420.1
2022-08-28T04:39:19.786Z,95416.9
2022-08-28T04:40:22.487Z,95417.1
2022-08-28T04:41:25.079Z,95422.6
2022-08-28T04:42:27.247Z,95415.9
2022-08-28T04:43:29.441Z,95412.9
2022-08-28T04:44:31.643Z,95416
2022-08-28T04:45:34.116Z,95415.4
2022-08-28T04:46:37.039Z,95416.8
2022-08-28T04:47:39.526Z,95409.3
2022-08-28T04:48:41.717Z,95415.7
2022-08-28T04:49:43.919Z,95414.6
2022-08-28T04:50:46.133Z,95415.3
2022-08-28T04:51:48.648Z,95416.1
2022-08-28T04:52:51.131Z,95410.2
2022-08-28T04:53:53.610Z,95417
2022-08-28T04:54:56.090Z,95417.7
2022-08-28T04:55:58.303Z,95417.3
2022-08-28T04:57:00.228Z,95417
2022-08-28T04:58:02.714Z,95420
2022-08-28T04:59:04.882Z,95420.1
2022-08-28T05:00:07.384Z,95419.6
2022-08-28T05:01:10.228Z,95418
2022-08-28T05:02:12.808Z,95420
2022-08-28T05:03:15.379Z,95417.7
2022-08-28T05:04:17.858Z,95422.3
2022-08-28T05:06:25.326Z,95421.8
2022-08-28T05:07:27.816Z,95423.9
2022-08-28T05:08:30.018Z,95423.7
2022-08-28T05:09:32.235Z,95427.8
2022-08-28T05:10:34.712Z,95427.5
2022-08-28T05:11:36.921Z,95427.3
2022-08-28T05:12:39.092Z,95428.3
2022-08-28T05:13:41.581Z,95424.5
2022-08-28T05:14:43.493Z,95431.7
2022-08-28T05:15:45.974Z,95429
2022-08-28T05:16:48.719Z,95433.4
2022-08-28T05:17:50.655Z,95432
2022-08-28T05:18:53.120Z,95428.1
2022-08-28T05:19:55.594Z,95434.6
2022-08-28T05:20:59.415Z,95435.3
2022-08-28T05:22:01.895Z,95438
2022-08-28T05:23:04.363Z,95434.1
2022-08-28T05:24:06.842Z,95437.8
2022-08-28T05:25:09.335Z,95435.9
2022-08-28T05:26:11.819Z,95435.5
2022-08-28T05:27:14.320Z,95434.9
2022-08-28T05:28:16.621Z,95438.6
2022-08-28T05:29:19.100Z,95438
2022-08-28T05:30:21.034Z,95436.9
2022-08-28T05:31:23.795Z,95434.8
2022-08-28T05:32:26.434Z,95441.4
2022-08-28T05:33:28.908Z,95443.2
2022-08-28T05:34:31.478Z,95440.1
2022-08-28T05:35:33.668Z,95442.2
2022-08-28T05:36:35.862Z,95443.6
2022-08-28T05:37:38.290Z,95445.2
2022-08-28T05:38:40.771Z,95448.1
2022-08-28T05:39:42.965Z,95448.7
2022-08-28T05:40:45.171Z,95444.4
2022-08-28T05:41:47.676Z,95442.6
2022-08-28T05:42:50.162Z,95446.2
2022-08-28T05:43:52.652Z,95449.3
2022-08-28T05:44:56.248Z,95448.1
2022-08-28T05:45:59.452Z,95449.8
2022-08-28T05:47:02.101Z,95446.4
2022-08-28T05:48:04.274Z,95447.3
2022-08-28T05:50:11.757Z,95451
2022-08-28T05:51:15.039Z,95454.1
2022-08-28T05:52:17.824Z,95453.2
2022-08-28T05:53:20.302Z,95455
2022-08-28T05:54:22.509Z,95453.2
2022-08-28T05:55:24.773Z,95456.2
2022-08-28T05:56:27.240Z,95456.9
2022-08-28T05:57:29.469Z,95454.6
2022-08-28T05:58:31.945Z,95454.1
2022-08-28T05:59:33.896Z,95453.1
2022-08-28T06:00:36.090Z,95457.7
2022-08-28T06:01:38.619Z,95453.9
2022-08-28T06:02:41.050Z,95455.2
2022-08-28T06:03:43.574Z,95454.1
2022-08-28T06:04:45.865Z,95456
2022-08-28T06:05:48.069Z,95458.2
2022-08-28T06:06:50.537Z,95457.7
2022-08-28T06:07:53.015Z,95454.4
2022-08-28T06:10:00.505Z,95460.2
2022-08-28T06:11:04.070Z,95458.5
2022-08-28T06:12:08.878Z,95457.6
2022-08-28T06:13:13.972Z,95463.4
2022-08-28T06:14:19.087Z,95459.7
2022-08-28T06:15:22.200Z,95457
2022-08-28T06:16:25.053Z,95458.5
2022-08-28T06:17:27.736Z,95459
2022-08-28T06:18:30.198Z,95458.5
2022-08-28T06:19:32.683Z,95458.8
2022-08-28T06:20:35.158Z,95458.8
2022-08-28T06:21:37.363Z,95460.1
2022-08-28T06:22:39.840Z,95462.5
2022-08-28T06:23:42.318Z,95458.8
2022-08-28T06:24:44.795Z,95462.2
2022-08-28T06:25:47.272Z,95463.9
2022-08-28T06:26:49.449Z,95462.4
2022-08-28T06:27:51.680Z,95466.9
2022-08-28T06:28:53.858Z,95465.1
2022-08-28T06:29:56.343Z,95465.4
2022-08-28T06:32:04.039Z,95464.1
2022-08-28T06:33:06.456Z,95468.5
2022-08-28T06:34:08.924Z,95470.8
2022-08-28T06:35:12.111Z,95470.6
2022-08-28T06:36:14.028Z,95468.6
2022-08-28T06:37:15.663Z,95473.1
2022-08-28T06:38:18.139Z,95475.3
2022-08-28T06:39:20.631Z,95466.5
2022-08-28T06:40:23.026Z,95471.8
2022-08-28T06:41:25.345Z,95471.3
2022-08-28T06:42:27.566Z,95470.9
2022-08-28T06:43:29.779Z,95469.4
2022-08-28T06:44:32.344Z,95471.4
2022-08-28T06:45:35.117Z,95470.5
2022-08-28T06:46:39.480Z,95474.1
2022-08-28T06:47:41.956Z,95475.1
2022-08-28T06:48:44.160Z,95478.4
2022-08-28T06:49:46.653Z,95474.4
2022-08-28T06:50:48.860Z,95473
2022-08-28T06:51:51.335Z,95477.1
2022-08-28T06:52:53.535Z,95475.7
2022-08-28T06:53:56.033Z,95479.6
2022-08-28T06:54:58.505Z,95477.5
2022-08-28T06:56:00.984Z,95481.5
2022-08-28T06:57:03.459Z,95478
2022-08-28T06:58:06.194Z,95482.1
2022-08-28T06:59:08.658Z,95480.8
2022-08-28T07:00:11.145Z,95481
2022-08-28T07:01:16.008Z,95482.9
2022-08-28T07:02:20.793Z,95482.8
2022-08-28T07:03:27.133Z,95483.2
2022-08-28T07:04:29.073Z,95487.1
2022-08-28T07:05:31.266Z,95488.2
2022-08-28T07:06:33.746Z,95487.2
2022-08-28T07:07:36.232Z,95487.1
2022-08-28T07:08:38.139Z,95485.4
2022-08-28T07:09:39.818Z,95486
2022-08-28T07:10:41.774Z,95490.7
2022-08-28T07:11:44.245Z,95492.2
2022-08-28T07:12:46.735Z,95489.3
2022-08-28T07:13:49.212Z,95487.8
2022-08-28T07:14:51.689Z,95490.4
2022-08-28T07:15:53.794Z,95493.7
2022-08-28T07:16:56.412Z,95491.2
2022-08-28T07:17:58.880Z,95490.3
2022-08-28T07:19:01.225Z,95488.2
2022-08-28T07:20:03.701Z,95492.8
2022-08-28T07:22:11.169Z,95495.4
2022-08-28T07:23:13.643Z,95495.5
2022-08-28T07:24:16.172Z,95492.9
2022-08-28T07:25:21.313Z,95494
2022-08-28T07:26:23.517Z,95495.9
2022-08-28T07:27:25.991Z,95495.3
2022-08-28T07:28:28.454Z,95495
2022-08-28T07:29:30.656Z,95495.2
2022-08-28T07:30:32.564Z,95494.8
2022-08-28T07:31:35.133Z,95501.1
2022-08-28T07:32:37.452Z,95499.9
2022-08-28T07:33:39.738Z,95502.7
2022-08-28T07:34:42.270Z,95503.5
2022-08-28T07:35:44.757Z,95503.5
2022-08-28T07:36:46.965Z,95499.4
2022-08-28T07:37:48.939Z,95502
2022-08-28T07:38:54.747Z,95502.6
2022-08-28T07:39:57.106Z,95505.3
2022-08-28T07:40:59.377Z,95507.2
2022-08-28T07:42:01.849Z,95508
2022-08-28T07:43:03.496Z,95508.1
2022-08-28T07:44:05.712Z,95511
2022-08-28T07:45:08.199Z,95509
2022-08-28T07:46:10.990Z,95510.4
2022-08-28T07:47:13.377Z,95509.5
2022-08-28T07:49:22.471Z,95510.1
2022-08-28T07:50:24.107Z,95515
2022-08-28T07:51:26.032Z,95515.9
2022-08-28T07:52:28.510Z,95513.9
2022-08-28T07:54:35.697Z,95517.8
2022-08-28T07:55:38.429Z,95517.8
2022-08-28T07:56:42.247Z,95523.7
2022-08-28T07:57:44.719Z,95524.4
2022-08-28T07:58:47.040Z,95524.8
2022-08-28T07:59:49.518Z,95531.2
2022-08-28T08:00:51.997Z,95526.7
2022-08-28T08:01:54.928Z,95532.1
2022-08-28T08:02:57.187Z,95531.3
2022-08-28T08:05:04.388Z,95533.3
2022-08-28T08:06:06.862Z,95533.9
2022-08-28T08:07:09.339Z,95537.3
2022-08-28T08:08:11.894Z,95539.8
2022-08-28T08:09:14.809Z,95537.3
2022-08-28T08:13:32.007Z,95544
2022-08-28T08:14:34.682Z,95541.7
2022-08-28T08:15:37.298Z,95544
2022-08-28T08:16:39.285Z,95540.1
2022-08-28T08:17:41.800Z,95545.6
2022-08-28T08:18:43.725Z,95541.2
2022-08-28T08:19:47.201Z,95542.5
2022-08-28T08:20:49.436Z,95544.9
2022-08-28T08:22:56.633Z,95542.8
2022-08-28T08:23:59.372Z,95543.9
2022-08-28T08:25:01.564Z,95546.2
2022-08-28T08:26:04.039Z,95550
2022-08-28T08:27:06.534Z,95549.2
2022-08-28T08:28:10.735Z,95546.5
2022-08-28T08:29:12.928Z,95546.2
2022-08-28T08:30:15.415Z,95550.4
2022-08-28T08:31:17.792Z,95545.1
2022-08-28T08:32:20.428Z,95550.8
2022-08-28T08:33:22.955Z,95552.3
2022-08-28T08:34:25.166Z,95549.5
2022-08-28T08:35:27.376Z,95546.8
2022-08-28T08:36:29.854Z,95551.2
2022-08-28T08:37:34.162Z,95554.9
2022-08-28T08:38:36.663Z,95554.9
2022-08-28T08:39:39.149Z,95554.7
2022-08-28T08:40:41.703Z,95552.4
2022-08-28T08:41:44.271Z,95557.4
2022-08-28T08:42:46.484Z,95556.9
2022-08-28T08:43:48.395Z,95557.2
2022-08-28T08:44:50.035Z,95558.8
2022-08-28T08:45:52.486Z,95555.7
2022-08-28T08:48:00.057Z,95563.5
2022-08-28T08:49:02.539Z,95561.5
2022-08-28T08:50:04.440Z,95562.1
2022-08-28T08:51:06.622Z,95562.3
2022-08-28T08:52:09.108Z,95564.4
2022-08-28T08:53:11.011Z,95564.7
2022-08-28T08:54:13.488Z,95563.2
2022-08-28T08:55:16.325Z,95567.6
2022-08-28T08:56:18.823Z,95566
2022-08-28T08:57:22.007Z,95563.8
2022-08-28T08:58:24.220Z,95567.9
2022-08-28T08:59:26.699Z,95568.8
2022-08-28T09:00:28.710Z,95565.2
2022-08-28T09:01:31.584Z,95564.7
2022-08-28T09:02:34.232Z,95565.4
2022-08-28T09:03:36.507Z,95569.3
2022-08-28T09:04:42.916Z,95571.2
2022-08-28T09:05:45.396Z,95572.5
2022-08-28T09:06:47.869Z,95575.4
2022-08-28T09:08:54.793Z,95575.1
2022-08-28T09:09:57.002Z,95577.2
2022-08-28T09:10:59.208Z,95578.8
2022-08-28T09:12:01.428Z,95578.2
2022-08-28T09:13:03.054Z,95575.7
2022-08-28T09:14:05.545Z,95583.1
2022-08-28T09:15:07.747Z,95581.6
2022-08-28T09:16:10.546Z,95581.6
2022-08-28T09:17:12.807Z,95580.2
2022-08-28T09:18:15.988Z,95579.7
2022-08-28T09:19:18.161Z,95578.5
2022-08-28T09:22:33.308Z,95579.5
2022-08-28T09:23:36.926Z,95578.5
2022-08-28T09:24:39.125Z,95581.4
2022-08-28T09:25:45.016Z,95577.5
2022-08-28T09:27:52.805Z,95578.5
2022-08-28T09:28:55.012Z,95581.6
2022-08-28T09:29:57.213Z,95582.1
2022-08-28T09:31:00.024Z,95581.6
2022-08-28T09:32:02.073Z,95583.9
2022-08-28T09:33:04.571Z,95581.3
2022-08-28T09:34:06.784Z,95586.1
2022-08-28T09:35:09.279Z,95583.6
2022-08-28T09:36:11.773Z,95585.7
2022-08-28T09:37:14.996Z,95587.5
2022-08-28T09:38:17.472Z,95585.5
2022-08-28T09:39:19.663Z,95585.6
2022-08-28T09:40:22.215Z,95588.1
2022-08-28T09:41:24.831Z,95590.3
2022-08-28T09:42:27.317Z,95590.7
2022-08-28T09:43:29.546Z,95589.7
2022-08-28T09:44:31.742Z,95588.6
2022-08-28T09:45:34.218Z,95589.7
2022-08-28T09:46:36.784Z,95592
2022-08-28T09:48:44.066Z,95591.6
2022-08-28T09:49:45.996Z,95596.1
2022-08-28T09:50:48.217Z,95593
2022-08-28T09:51:50.424Z,95592.6
2022-08-28T09:52:52.904Z,95594.9
2022-08-28T09:53:54.816Z,95595.6
2022-08-28T09:54:57.298Z,95595.2
2022-08-28T09:55:59.234Z,95596.1
2022-08-28T09:57:01.752Z,95597.7
2022-08-28T09:58:04.995Z,95599.8
2022-08-28T09:59:08.068Z,95599.8
2022-08-28T10:00:10.567Z,95598
2022-08-28T10:01:12.860Z,95603.5
2022-08-28T10:02:15.278Z,95604.7
2022-08-28T10:03:17.500Z,95601.2
2022-08-28T10:04:20.200Z,95603.9
2022-08-28T10:06:27.600Z,95608.1
2022-08-28T10:07:30.105Z,95601.8
2022-08-28T10:08:31.753Z,95604.8
2022-08-28T10:09:34.248Z,95601.9
2022-08-28T10:10:36.470Z,95601.6
2022-08-28T10:11:38.696Z,95607.7
2022-08-28T10:12:42.702Z,95604.9
2022-08-28T10:13:44.679Z,95612.2
2022-08-28T10:14:47.148Z,95607.9
2022-08-28T10:15:49.517Z,95612.8
2022-08-28T10:16:52.145Z,95615.6
2022-08-28T10:17:54.398Z,95612.7
2022-08-28T10:18:56.355Z,95608.4
2022-08-28T10:19:58.571Z,95614.3
2022-08-28T10:21:00.499Z,95614.9
2022-08-28T10:23:07.882Z,95617.9
2022-08-28T10:24:10.329Z,95617.5
2022-08-28T10:25:12.615Z,95614.4
2022-08-28T10:26:14.969Z,95619.5
2022-08-28T10:27:17.529Z,95622.1
2022-08-28T10:28:19.325Z,95621.6
2022-08-28T10:29:22.023Z,95620.6
2022-08-28T10:30:24.572Z,95623.3
2022-08-28T10:32:32.407Z,95625.4
2022-08-28T10:33:34.907Z,95628
2022-08-28T10:34:37.101Z,95628.3
2022-08-28T10:35:39.602Z,95626.4
2022-08-28T10:36:42.085Z,95624.6
2022-08-28T10:37:44.566Z,95624.6
2022-08-28T10:39:51.759Z,95627.6
2022-08-28T10:40:53.714Z,95624.4
2022-08-28T10:41:55.934Z,95625.7
2022-08-28T10:42:58.128Z,95625.3
2022-08-28T10:44:00.618Z,95624.9
2022-08-28T10:45:02.581Z,95626.6
2022-08-28T10:46:05.903Z,95629
2022-08-28T10:47:08.459Z,95626
2022-08-28T10:48:11.138Z,95626.4
2022-08-28T10:49:13.363Z,95621.4
2022-08-28T10:50:15.855Z,95620
2022-08-28T10:51:18.330Z,95624.3
2022-08-28T10:52:24.999Z,95623.5
2022-08-28T10:53:27.200Z,95625.7
2022-08-28T10:54:29.429Z,95626.5
2022-08-28T10:55:31.656Z,95627.1
2022-08-28T10:56:34.130Z,95622.2
2022-08-28T10:58:41.308Z,95624.7
2022-08-28T10:59:43.978Z,95624.7
2022-08-28T11:00:45.897Z,95626.2
2022-08-28T11:01:48.493Z,95621.3
2022-08-28T11:02:51.163Z,95622.9
2022-08-28T11:03:53.209Z,95625.4
2022-08-28T11:06:00.141Z,95625.6
2022-08-28T11:07:03.260Z,95620.1
2022-08-28T11:08:05.754Z,95619.3
2022-08-28T11:09:08.035Z,95617.9
2022-08-28T11:10:10.247Z,95619.2
2022-08-28T11:11:12.722Z,95621.6
2022-08-28T11:12:15.247Z,95623.8
2022-08-28T11:13:17.462Z,95617
2022-08-28T11:14:19.957Z,95621.9
2022-08-28T11:15:22.439Z,95619.8
2022-08-28T11:16:24.730Z,95621.1
2022-08-28T11:17:27.066Z,95624.3
2022-08-28T11:18:29.542Z,95618.8
2022-08-28T11:19:34.064Z,95621.3
2022-08-28T11:20:36.263Z,95625.6
2022-08-28T11:21:38.490Z,95622.4
2022-08-28T11:22:43.312Z,95624.6
2022-08-28T11:23:49.108Z,95623.3
2022-08-28T11:24:54.470Z,95626.7
2022-08-28T11:26:00.604Z,95626.9
2022-08-28T11:27:03.079Z,95623.5
2022-08-28T11:28:05.552Z,95628.2
2022-08-28T11:29:07.765Z,95625.8
2022-08-28T11:30:09.946Z,95624.3
2022-08-28T11:32:17.421Z,95624.9
2022-08-28T11:33:19.612Z,95630.6
2022-08-28T11:34:22.085Z,95631.1
2022-08-28T11:35:23.997Z,95629.5
2022-08-28T11:36:25.937Z,95627
2022-08-28T11:37:28.154Z,95627
2022-08-28T11:38:30.352Z,95627.5
2022-08-28T11:39:32.833Z,95627.7
2022-08-28T11:40:35.591Z,95622
2022-08-28T11:41:37.356Z,95625.1
2022-08-28T11:42:39.887Z,95627.2
2022-08-28T11:43:41.797Z,95630.2
2022-08-28T11:44:44.276Z,95629.5
2022-08-28T11:46:51.476Z,95633.4
2022-08-28T11:47:53.676Z,95636.8
2022-08-28T11:48:55.335Z,95638.8
2022-08-28T11:49:56.984Z,95635.1
2022-08-28T11:50:58.898Z,95639
2022-08-28T11:52:01.416Z,95636.5
2022-08-28T11:53:03.670Z,95636.5
2022-08-28T11:54:06.182Z,95637.1
2022-08-28T11:55:08.099Z,95638.1
2022-08-28T11:56:10.616Z,95639.1
2022-08-28T11:57:12.544Z,95638.2
2022-08-28T11:58:14.756Z,95642.1
2022-08-28T11:59:17.221Z,95639.5
2022-08-28T12:00:19.710Z,95639
2022-08-28T12:01:22.189Z,95640.2
2022-08-28T12:02:25.015Z,95635
2022-08-28T12:03:27.356Z,95637.7
2022-08-28T12:04:30.301Z,95641.1
2022-08-28T12:05:32.934Z,95638.6
2022-08-28T12:06:35.157Z,95637.2
2022-08-28T12:07:36.808Z,95634.9
2022-08-28T12:08:39.305Z,95632.1
2022-08-28T12:09:41.523Z,95635.7
2022-08-28T12:10:44.014Z,95635.4
2022-08-28T12:11:46.195Z,95632.8
2022-08-28T12:12:48.702Z,95632.4
2022-08-28T12:13:51.208Z,95630.8
2022-08-28T12:14:53.425Z,95632
2022-08-28T12:15:56.157Z,95634.3
2022-08-28T12:16:58.736Z,95631.8
2022-08-28T12:18:01.243Z,95630.6
2022-08-28T12:19:03.772Z,95634.6
2022-08-28T12:20:06.263Z,95637.7
2022-08-28T12:21:08.648Z,95632.6
2022-08-28T12:22:11.150Z,95630.6
2022-08-28T12:23:14.233Z,95630.6
2022-08-28T12:24:17.541Z,95630.5
2022-08-28T12:25:20.207Z,95627.9
2022-08-28T12:26:22.696Z,95630.1
2022-08-28T12:27:24.896Z,95632
2022-08-28T12:28:27.155Z,95629.9
2022-08-28T12:29:29.367Z,95631.8
2022-08-28T12:30:32.039Z,95628.5
2022-08-28T12:31:34.080Z,95630
2022-08-28T12:32:36.517Z,95632.5
2022-08-28T12:33:38.739Z,95630.8
2022-08-28T12:34:41.249Z,95633.3
2022-08-28T12:35:45.065Z,95628
2022-08-28T12:37:54.739Z,95635.5
2022-08-28T12:38:56.961Z,95634.6
2022-08-28T12:40:00.108Z,95631.4
2022-08-28T12:41:02.742Z,95629.8
2022-08-28T12:42:04.950Z,95628.8
2022-08-28T12:43:07.567Z,95632.4
2022-08-28T12:44:09.784Z,95633.2
2022-08-28T12:45:12.006Z,95630.3
2022-08-28T12:47:18.680Z,95633.4
2022-08-28T12:48:21.160Z,95630
2022-08-28T12:49:23.365Z,95631.5
2022-08-28T12:50:25.863Z,95631.6
2022-08-28T12:51:27.787Z,95633.1
2022-08-28T12:52:30.261Z,95633.1
2022-08-28T12:53:32.744Z,95637.2
2022-08-28T12:54:34.951Z,95636.9
2022-08-28T12:55:37.425Z,95638.9
2022-08-28T12:56:39.958Z,95635.6
2022-08-28T12:57:42.484Z,95637.4
2022-08-28T12:58:44.984Z,95631.6
2022-08-28T12:59:47.191Z,95631.8
2022-08-28T13:00:49.679Z,95635.8
2022-08-28T13:01:52.953Z,95635.6
2022-08-28T13:02:55.501Z,95637.5
2022-08-28T13:03:57.424Z,95637
2022-08-28T13:05:00.217Z,95635.9
2022-08-28T13:06:02.408Z,95633.6
2022-08-28T13:07:04.603Z,95636
2022-08-28T13:08:07.086Z,95634.2
2022-08-28T13:09:09.301Z,95635.6
2022-08-28T13:10:11.501Z,95635.2
2022-08-28T13:11:15.355Z,95636.4
2022-08-28T13:12:17.569Z,95631.9
2022-08-28T13:13:20.043Z,95634.2
2022-08-28T13:14:22.242Z,95637
2022-08-28T13:15:26.000Z,95639.2
2022-08-28T13:16:28.335Z,95634.8
2022-08-28T13:17:30.623Z,95635.4
2022-08-28T13:18:34.440Z,95635.3
2022-08-28T13:19:36.373Z,95633.6
2022-08-28T13:20:38.867Z,95635.1
2022-08-28T13:21:41.083Z,95638.5
2022-08-28T13:23:48.278Z,95636
2022-08-28T13:24:50.481Z,95639.3
2022-08-28T13:25:52.675Z,95637.1
2022-08-28T13:26:54.623Z,95633.9